sensor_id;sensor_type;location;lat;lon;timestamp;pressure;altitude;pressure_sealevel;temperature;humidity
71126;BME280;58785;55.566;38.058;2022-10-17T00:01:09;101560.03;;;6.24;66.77
71126;BME280;58785;55.566;38.058;2022-10-17T00:03:35;101572.06;;;6.29;66.68
71126;BME280;58785;55.566;38.058;2022-10-17T00:06:10;101575.44;;;6.33;66.24
71126;BME280;58785;55.566;38.058;2022-10-17T00:08:37;101565.78;;;6.32;66.84
71126;BME280;58785;55.566;38.058;2022-10-17T00:11:05;101576.38;;;6.32;66.12
71126;BME280;58785;55.566;38.058;2022-10-17T00:13:31;101573.53;;;6.35;65.98
71126;BME280;58785;55.566;38.058;2022-10-17T00:15:57;101569.34;;;6.31;66.70
71126;BME280;58785;55.566;38.058;2022-10-17T00:18:23;101564.03;;;6.31;66.98
71126;BME280;58785;55.566;38.058;2022-10-17T00:20:49;101562.31;;;6.30;66.51
71126;BME280;58785;55.566;38.058;2022-10-17T00:23:15;101569.44;;;6.29;66.35
71126;BME280;58785;55.566;38.058;2022-10-17T00:25:40;101563.44;;;6.26;66.16
71126;BME280;58785;55.566;38.058;2022-10-17T00:28:10;101554.88;;;6.21;66.58
71126;BME280;58785;55.566;38.058;2022-10-17T00:30:36;101567.03;;;6.25;66.59
71126;BME280;58785;55.566;38.058;2022-10-17T00:33:02;101546.34;;;6.16;66.42
71126;BME280;58785;55.566;38.058;2022-10-17T00:35:27;101552.41;;;6.18;66.97
71126;BME280;58785;55.566;38.058;2022-10-17T00:37:53;101556.94;;;6.16;66.43
71126;BME280;58785;55.566;38.058;2022-10-17T00:40:18;101553.19;;;6.20;66.54
71126;BME280;58785;55.566;38.058;2022-10-17T00:42:44;101545.59;;;6.14;67.00
71126;BME280;58785;55.566;38.058;2022-10-17T00:45:20;101549.75;;;6.18;66.72
71126;BME280;58785;55.566;38.058;2022-10-17T00:47:50;101539.25;;;6.16;67.06
71126;BME280;58785;55.566;38.058;2022-10-17T00:50:18;101539.00;;;6.21;67.10
71126;BME280;58785;55.566;38.058;2022-10-17T00:52:44;101525.41;;;6.11;66.50
71126;BME280;58785;55.566;38.058;2022-10-17T00:55:23;101538.09;;;6.22;66.78
71126;BME280;58785;55.566;38.058;2022-10-17T00:57:50;101524.91;;;6.20;66.51
71126;BME280;58785;55.566;38.058;2022-10-17T01:00:17;101521.41;;;6.20;66.98
71126;BME280;58785;55.566;38.058;2022-10-17T01:02:43;101521.16;;;6.24;67.00
71126;BME280;58785;55.566;38.058;2022-10-17T01:05:09;101519.19;;;6.28;66.70
71126;BME280;58785;55.566;38.058;2022-10-17T01:07:37;101501.69;;;6.25;67.01
71126;BME280;58785;55.566;38.058;2022-10-17T01:10:05;101510.28;;;6.29;66.25
71126;BME280;58785;55.566;38.058;2022-10-17T01:15:47;101499.03;;;6.25;66.42
71126;BME280;58785;55.566;38.058;2022-10-17T01:32:33;101485.13;;;6.22;67.04
71126;BME280;58785;55.566;38.058;2022-10-17T01:35:22;101488.63;;;6.22;66.63
71126;BME280;58785;55.566;38.058;2022-10-17T01:40:29;101476.38;;;6.20;66.39
71126;BME280;58785;55.566;38.058;2022-10-17T01:43:06;101477.16;;;6.22;67.04
71126;BME280;58785;55.566;38.058;2022-10-17T01:45:43;101472.78;;;6.21;67.06
71126;BME280;58785;55.566;38.058;2022-10-17T01:48:24;101467.84;;;6.15;66.98
71126;BME280;58785;55.566;38.058;2022-10-17T01:51:12;101461.28;;;6.22;67.21
71126;BME280;58785;55.566;38.058;2022-10-17T01:53:43;101456.84;;;6.22;66.72
71126;BME280;58785;55.566;38.058;2022-10-17T01:56:13;101443.94;;;6.16;67.27
71126;BME280;58785;55.566;38.058;2022-10-17T01:58:48;101456.88;;;6.21;66.71
71126;BME280;58785;55.566;38.058;2022-10-17T02:01:16;101442.41;;;6.12;67.03
71126;BME280;58785;55.566;38.058;2022-10-17T02:03:44;101437.97;;;6.13;67.36
71126;BME280;58785;55.566;38.058;2022-10-17T02:06:11;101433.59;;;6.12;67.12
71126;BME280;58785;55.566;38.058;2022-10-17T02:08:48;101426.75;;;6.08;67.63
71126;BME280;58785;55.566;38.058;2022-10-17T02:11:19;101422.41;;;6.07;67.57
71126;BME280;58785;55.566;38.058;2022-10-17T02:24:48;101418.63;;;6.11;67.54
71126;BME280;58785;55.566;38.058;2022-10-17T02:27:32;101440.34;;;6.17;67.16
71126;BME280;58785;55.566;38.058;2022-10-17T02:32:48;101433.84;;;6.23;67.31
71126;BME280;58785;55.566;38.058;2022-10-17T02:35:17;101418.09;;;6.20;67.23
71126;BME280;58785;55.566;38.058;2022-10-17T02:37:46;101409.16;;;6.22;66.82
71126;BME280;58785;55.566;38.058;2022-10-17T02:40:12;101408.38;;;6.20;67.22
71126;BME280;58785;55.566;38.058;2022-10-17T02:42:42;101413.59;;;6.22;67.12
71126;BME280;58785;55.566;38.058;2022-10-17T02:45:08;101423.91;;;6.26;67.30
71126;BME280;58785;55.566;38.058;2022-10-17T02:47:51;101408.22;;;6.23;67.31
71126;BME280;58785;55.566;38.058;2022-10-17T02:50:23;101421.94;;;6.30;67.49
71126;BME280;58785;55.566;38.058;2022-10-17T02:52:57;101419.22;;;6.31;67.57
71126;BME280;58785;55.566;38.058;2022-10-17T02:55:32;101422.72;;;6.32;67.11
71126;BME280;58785;55.566;38.058;2022-10-17T02:58:07;101408.97;;;6.25;67.06
71126;BME280;58785;55.566;38.058;2022-10-17T03:00:38;101403.88;;;6.22;67.75
71126;BME280;58785;55.566;38.058;2022-10-17T03:03:18;101395.97;;;6.21;67.87
71126;BME280;58785;55.566;38.058;2022-10-17T03:05:44;101395.31;;;6.17;67.23
71126;BME280;58785;55.566;38.058;2022-10-17T03:08:09;101402.16;;;6.21;67.51
71126;BME280;58785;55.566;38.058;2022-10-17T03:10:36;101388.03;;;6.21;67.71
71126;BME280;58785;55.566;38.058;2022-10-17T03:13:01;101377.63;;;6.18;67.24
71126;BME280;58785;55.566;38.058;2022-10-17T03:15:27;101387.19;;;6.20;67.38
71126;BME280;58785;55.566;38.058;2022-10-17T03:17:52;101366.94;;;6.19;67.17
71126;BME280;58785;55.566;38.058;2022-10-17T03:20:18;101383.63;;;6.21;67.66
71126;BME280;58785;55.566;38.058;2022-10-17T03:22:44;101371.47;;;6.17;67.05
71126;BME280;58785;55.566;38.058;2022-10-17T03:25:09;101366.19;;;6.17;67.94
71126;BME280;58785;55.566;38.058;2022-10-17T03:27:35;101370.72;;;6.15;67.44
71126;BME280;58785;55.566;38.058;2022-10-17T03:30:00;101364.47;;;6.16;67.46
71126;BME280;58785;55.566;38.058;2022-10-17T03:32:26;101374.63;;;6.24;67.40
71126;BME280;58785;55.566;38.058;2022-10-17T03:34:51;101369.34;;;6.24;67.23
71126;BME280;58785;55.566;38.058;2022-10-17T03:37:17;101371.03;;;6.25;67.72
71126;BME280;58785;55.566;38.058;2022-10-17T03:39:43;101361.47;;;6.22;67.73
71126;BME280;58785;55.566;38.058;2022-10-17T03:42:08;101364.69;;;6.27;67.54
71126;BME280;58785;55.566;38.058;2022-10-17T03:44:34;101357.41;;;6.31;66.99
71126;BME280;58785;55.566;38.058;2022-10-17T03:46:59;101353.34;;;6.25;67.83
71126;BME280;58785;55.566;38.058;2022-10-17T03:49:25;101345.97;;;6.30;67.18
71126;BME280;58785;55.566;38.058;2022-10-17T03:51:50;101330.19;;;6.29;67.00
71126;BME280;58785;55.566;38.058;2022-10-17T03:54:16;101328.47;;;6.28;67.66
71126;BME280;58785;55.566;38.058;2022-10-17T03:56:42;101334.09;;;6.38;67.13
71126;BME280;58785;55.566;38.058;2022-10-17T03:59:12;101336.53;;;6.41;67.60
71126;BME280;58785;55.566;38.058;2022-10-17T04:01:37;101326.13;;;6.38;67.18
71126;BME280;58785;55.566;38.058;2022-10-17T04:04:03;101315.81;;;6.33;67.38
71126;BME280;58785;55.566;38.058;2022-10-17T04:06:29;101328.78;;;6.38;67.45
71126;BME280;58785;55.566;38.058;2022-10-17T04:08:54;101313.28;;;6.31;66.97
71126;BME280;58785;55.566;38.058;2022-10-17T04:11:20;101326.97;;;6.38;66.91
71126;BME280;58785;55.566;38.058;2022-10-17T04:13:51;101298.59;;;6.26;67.60
71126;BME280;58785;55.566;38.058;2022-10-17T04:16:17;101319.72;;;6.42;67.32
71126;BME280;58785;55.566;38.058;2022-10-17T04:18:43;101319.03;;;6.38;67.01
71126;BME280;58785;55.566;38.058;2022-10-17T04:21:09;101324.16;;;6.41;67.67
71126;BME280;58785;55.566;38.058;2022-10-17T04:23:36;101323.59;;;6.36;66.78
71126;BME280;58785;55.566;38.058;2022-10-17T04:26:02;101328.78;;;6.38;66.97
71126;BME280;58785;55.566;38.058;2022-10-17T04:28:28;101313.28;;;6.31;67.00
71126;BME280;58785;55.566;38.058;2022-10-17T04:31:00;101317.53;;;6.34;67.01
71126;BME280;58785;55.566;38.058;2022-10-17T04:33:26;101312.78;;;6.39;67.46
71126;BME280;58785;55.566;38.058;2022-10-17T04:38:24;101315.94;;;6.46;67.27
71126;BME280;58785;55.566;38.058;2022-10-17T04:40:50;101307.16;;;6.45;66.69
71126;BME280;58785;55.566;38.058;2022-10-17T04:43:15;101292.94;;;6.46;67.30
71126;BME280;58785;55.566;38.058;2022-10-17T04:45:41;101280.56;;;6.47;67.05
71126;BME280;58785;55.566;38.058;2022-10-17T04:48:06;101295.03;;;6.55;66.53
71126;BME280;58785;55.566;38.058;2022-10-17T04:50:32;101309.72;;;6.61;66.93
71126;BME280;58785;55.566;38.058;2022-10-17T04:52:58;101308.69;;;6.63;67.29
71126;BME280;58785;55.566;38.058;2022-10-17T04:55:23;101298.94;;;6.64;66.79
71126;BME280;58785;55.566;38.058;2022-10-17T04:57:49;101311.06;;;6.68;66.35
71126;BME280;58785;55.566;38.058;2022-10-17T05:00:14;101294.78;;;6.74;66.82
71126;BME280;58785;55.566;38.058;2022-10-17T05:02:40;101299.03;;;6.77;66.44
71126;BME280;58785;55.566;38.058;2022-10-17T05:05:06;101301.97;;;6.86;66.62
71126;BME280;58785;55.566;38.058;2022-10-17T05:07:31;101271.31;;;6.82;66.05
71126;BME280;58785;55.566;38.058;2022-10-17T05:09:57;101277.66;;;6.94;66.75
71126;BME280;58785;55.566;38.058;2022-10-17T05:12:23;101262.50;;;6.96;66.99
71126;BME280;58785;55.566;38.058;2022-10-17T05:14:49;101262.88;;;7.04;65.99
71126;BME280;58785;55.566;38.058;2022-10-17T05:17:14;101259.25;;;7.05;66.42
71126;BME280;58785;55.566;38.058;2022-10-17T05:19:40;101250.47;;;7.05;66.70
71126;BME280;58785;55.566;38.058;2022-10-17T05:22:05;101240.81;;;7.04;66.39
71126;BME280;58785;55.566;38.058;2022-10-17T05:24:31;101245.53;;;7.13;65.79
71126;BME280;58785;55.566;38.058;2022-10-17T05:26:57;101258.28;;;7.20;66.57
71126;BME280;58785;55.566;38.058;2022-10-17T05:29:22;101253.81;;;7.21;65.70
71126;BME280;58785;55.566;38.058;2022-10-17T05:31:48;101263.94;;;7.29;65.76
71126;BME280;58785;55.566;38.058;2022-10-17T05:34:13;101258.47;;;7.32;65.57
71126;BME280;58785;55.566;38.058;2022-10-17T05:36:39;101259.13;;;7.35;66.08
71126;BME280;58785;55.566;38.058;2022-10-17T05:39:04;101246.69;;;7.36;65.77
71126;BME280;58785;55.566;38.058;2022-10-17T05:41:30;101253.41;;;7.41;65.96
71126;BME280;58785;55.566;38.058;2022-10-17T05:43:55;101258.69;;;7.41;65.96
71126;BME280;58785;55.566;38.058;2022-10-17T05:46:21;101251.63;;;7.42;65.68
71126;BME280;58785;55.566;38.058;2022-10-17T05:48:47;101262.03;;;7.45;65.26
71126;BME280;58785;55.566;38.058;2022-10-17T05:51:12;101255.78;;;7.46;65.80
71126;BME280;58785;55.566;38.058;2022-10-17T05:53:39;101245.06;;;7.47;66.22
71126;BME280;58785;55.566;38.058;2022-10-17T05:56:06;101253.25;;;7.57;65.86
71126;BME280;58785;55.566;38.058;2022-10-17T05:58:33;101244.06;;;7.63;65.44
71126;BME280;58785;55.566;38.058;2022-10-17T06:01:04;101243.75;;;7.67;65.60
71126;BME280;58785;55.566;38.058;2022-10-17T06:03:30;101242.50;;;7.73;65.08
71126;BME280;58785;55.566;38.058;2022-10-17T06:06:02;101240.69;;;7.73;65.51
71126;BME280;58785;55.566;38.058;2022-10-17T06:08:28;101242.41;;;7.74;65.10
71126;BME280;58785;55.566;38.058;2022-10-17T06:10:53;101232.13;;;7.83;64.77
71126;BME280;58785;55.566;38.058;2022-10-17T06:13:19;101224.41;;;7.92;64.72
71126;BME280;58785;55.566;38.058;2022-10-17T06:15:44;101216.44;;;8.05;64.68
71126;BME280;58785;55.566;38.058;2022-10-17T06:18:10;101222.59;;;8.18;64.53
71126;BME280;58785;55.566;38.058;2022-10-17T06:20:36;101216.66;;;8.27;64.19
71126;BME280;58785;55.566;38.058;2022-10-17T06:23:02;101215.34;;;8.34;63.78
71126;BME280;58785;55.566;38.058;2022-10-17T06:25:30;101217.75;;;8.50;63.93
71126;BME280;58785;55.566;38.058;2022-10-17T06:27:56;101207.91;;;8.52;63.41
71126;BME280;58785;55.566;38.058;2022-10-17T06:30:22;101216.81;;;8.64;63.66
71126;BME280;58785;55.566;38.058;2022-10-17T06:32:47;101211.28;;;8.67;63.47
71126;BME280;58785;55.566;38.058;2022-10-17T06:35:13;101196.16;;;8.68;63.36
71126;BME280;58785;55.566;38.058;2022-10-17T06:37:38;101186.84;;;8.62;63.64
71126;BME280;58785;55.566;38.058;2022-10-17T06:40:05;101190.00;;;8.67;63.43
71126;BME280;58785;55.566;38.058;2022-10-17T06:42:33;101199.56;;;8.70;63.20
71126;BME280;58785;55.566;38.058;2022-10-17T06:45:01;101176.19;;;8.62;63.38
71126;BME280;58785;55.566;38.058;2022-10-17T06:47:27;101185.94;;;8.61;63.53
71126;BME280;58785;55.566;38.058;2022-10-17T06:49:52;101187.69;;;8.62;63.67
71126;BME280;58785;55.566;38.058;2022-10-17T06:52:18;101182.38;;;8.62;63.67
71126;BME280;58785;55.566;38.058;2022-10-17T06:54:44;101186.84;;;8.62;63.80
71126;BME280;58785;55.566;38.058;2022-10-17T06:57:09;101189.03;;;8.68;63.69
71126;BME280;58785;55.566;38.058;2022-10-17T06:59:35;101182.97;;;8.66;63.67
71126;BME280;58785;55.566;38.058;2022-10-17T07:02:01;101186.16;;;8.71;63.34
71126;BME280;58785;55.566;38.058;2022-10-17T07:04:27;101169.47;;;8.69;63.69
71126;BME280;58785;55.566;38.058;2022-10-17T07:06:52;101166.69;;;8.71;63.91
71126;BME280;58785;55.566;38.058;2022-10-17T07:09:18;101166.38;;;8.75;63.63
71126;BME280;58785;55.566;38.058;2022-10-17T07:11:44;101165.06;;;8.81;63.27
71126;BME280;58785;55.566;38.058;2022-10-17T07:14:09;101164.94;;;8.95;63.25
71126;BME280;58785;55.566;38.058;2022-10-17T07:16:35;101151.81;;;9.05;62.74
71126;BME280;58785;55.566;38.058;2022-10-17T07:19:01;101153.09;;;9.12;62.75
71126;BME280;58785;55.566;38.058;2022-10-17T07:21:26;101161.31;;;9.20;62.76
71126;BME280;58785;55.566;38.058;2022-10-17T07:23:52;101164.84;;;9.20;62.29
71126;BME280;58785;55.566;38.058;2022-10-17T07:26:18;101156.53;;;9.25;62.30
71126;BME280;58785;55.566;38.058;2022-10-17T07:28:45;101157.03;;;9.30;62.64
71126;BME280;58785;55.566;38.058;2022-10-17T07:31:16;101155.72;;;9.36;62.34
71126;BME280;58785;55.566;38.058;2022-10-17T07:33:42;101143.69;;;9.43;62.27
71126;BME280;58785;55.566;38.058;2022-10-17T07:36:09;101141.25;;;9.51;62.11
71126;BME280;58785;55.566;38.058;2022-10-17T07:38:36;101136.91;;;9.50;61.46
71126;BME280;58785;55.566;38.058;2022-10-17T07:41:04;101145.78;;;9.62;61.79
71126;BME280;58785;55.566;38.058;2022-10-17T07:43:30;101144.47;;;9.67;61.54
71126;BME280;58785;55.566;38.058;2022-10-17T07:45:55;101125.00;;;9.67;61.40
71126;BME280;58785;55.566;38.058;2022-10-17T07:48:22;101113.97;;;9.71;61.35
71126;BME280;58785;55.566;38.058;2022-10-17T07:50:49;101121.63;;;9.76;61.50
71126;BME280;58785;55.566;38.058;2022-10-17T07:53:15;101126.22;;;9.74;61.51
71126;BME280;58785;55.566;38.058;2022-10-17T07:55:41;101141.34;;;9.73;61.31
71126;BME280;58785;55.566;38.058;2022-10-17T07:58:08;101121.13;;;9.71;61.27
71126;BME280;58785;55.566;38.058;2022-10-17T08:00:35;101122.72;;;9.73;61.31
71126;BME280;58785;55.566;38.058;2022-10-17T08:03:01;101114.72;;;9.73;61.56
71126;BME280;58785;55.566;38.058;2022-10-17T08:05:28;101123.78;;;9.71;61.54
71126;BME280;58785;55.566;38.058;2022-10-17T08:07:54;101127.66;;;9.67;61.78
71126;BME280;58785;55.566;38.058;2022-10-17T08:10:19;101127.19;;;9.73;61.72
71126;BME280;58785;55.566;38.058;2022-10-17T08:12:45;101120.78;;;9.75;61.78
71126;BME280;58785;55.566;38.058;2022-10-17T08:15:11;101107.31;;;9.66;61.88
71126;BME280;58785;55.566;38.058;2022-10-17T08:17:37;101130.91;;;9.70;62.12
71126;BME280;58785;55.566;38.058;2022-10-17T08:20:04;101133.59;;;9.70;61.38
71126;BME280;58785;55.566;38.058;2022-10-17T08:22:31;101122.94;;;9.70;62.06
71126;BME280;58785;55.566;38.058;2022-10-17T08:24:57;101121.34;;;9.68;62.62
71126;BME280;58785;55.566;38.058;2022-10-17T08:27:22;101121.72;;;9.63;62.48
71126;BME280;58785;55.566;38.058;2022-10-17T08:29:50;101120.50;;;9.67;62.62
71126;BME280;58785;55.566;38.058;2022-10-17T08:32:20;101134.56;;;9.69;63.34
71126;BME280;58785;55.566;38.058;2022-10-17T08:34:46;101128.38;;;9.69;63.30
71126;BME280;58785;55.566;38.058;2022-10-17T08:37:12;101115.91;;;9.69;63.09
71126;BME280;58785;55.566;38.058;2022-10-17T08:39:41;101111.44;;;9.70;63.19
71126;BME280;58785;55.566;38.058;2022-10-17T08:47:51;101068.59;;;9.73;63.23
71126;BME280;58785;55.566;38.058;2022-10-17T08:55:48;101076.22;;;9.77;63.36
71126;BME280;58785;55.566;38.058;2022-10-17T08:58:43;101076.81;;;9.81;63.32
71126;BME280;58785;55.566;38.058;2022-10-17T09:07:30;101090.63;;;9.75;63.34
71126;BME280;58785;55.566;38.058;2022-10-17T09:10:27;101094.47;;;9.71;63.40
71126;BME280;58785;55.566;38.058;2022-10-17T09:13:16;101106.72;;;9.62;63.79
71126;BME280;58785;55.566;38.058;2022-10-17T09:18:40;101100.88;;;9.57;64.10
71126;BME280;58785;55.566;38.058;2022-10-17T09:21:24;101083.53;;;9.51;63.69
71126;BME280;58785;55.566;38.058;2022-10-17T09:23:54;101061.38;;;9.40;64.18
71126;BME280;58785;55.566;38.058;2022-10-17T09:26:20;101085.72;;;9.46;64.44
71126;BME280;58785;55.566;38.058;2022-10-17T09:28:53;101111.59;;;9.44;64.38
71126;BME280;58785;55.566;38.058;2022-10-17T09:31:25;101106.72;;;9.38;64.47
71126;BME280;58785;55.566;38.058;2022-10-17T09:33:55;101104.75;;;9.29;65.11
71126;BME280;58785;55.566;38.058;2022-10-17T09:36:22;101100.16;;;9.31;65.61
71126;BME280;58785;55.566;38.058;2022-10-17T09:38:55;101082.13;;;9.24;65.12
71126;BME280;58785;55.566;38.058;2022-10-17T09:41:25;101087.34;;;9.25;65.90
71126;BME280;58785;55.566;38.058;2022-10-17T09:43:55;101080.38;;;9.11;66.25
71126;BME280;58785;55.566;38.058;2022-10-17T09:46:29;101087.25;;;9.03;67.23
71126;BME280;58785;55.566;38.058;2022-10-17T09:49:13;101082.59;;;8.93;67.35
71126;BME280;58785;55.566;38.058;2022-10-17T09:51:41;101077.09;;;8.84;67.97
71126;BME280;58785;55.566;38.058;2022-10-17T09:54:23;101066.91;;;8.78;69.02
71126;BME280;58785;55.566;38.058;2022-10-17T09:56:59;101076.09;;;8.74;69.27
71126;BME280;58785;55.566;38.058;2022-10-17T09:59:58;101079.47;;;8.76;69.90
71126;BME280;58785;55.566;38.058;2022-10-17T10:02:26;101082.75;;;8.79;69.73
71126;BME280;58785;55.566;38.058;2022-10-17T10:04:59;101081.91;;;8.79;69.79
71126;BME280;58785;55.566;38.058;2022-10-17T10:07:31;101086.72;;;8.74;70.09
71126;BME280;58785;55.566;38.058;2022-10-17T10:09:58;101076.94;;;8.74;70.42
71126;BME280;58785;55.566;38.058;2022-10-17T10:12:33;101063.22;;;8.68;70.85
71126;BME280;58785;55.566;38.058;2022-10-17T10:14:59;101064.06;;;8.68;70.97
71126;BME280;58785;55.566;38.058;2022-10-17T10:17:38;101051.63;;;8.69;71.33
71126;BME280;58785;55.566;38.058;2022-10-17T10:20:33;101049.09;;;8.67;71.66
71126;BME280;58785;55.566;38.058;2022-10-17T10:25:47;101054.84;;;8.61;71.98
71126;BME280;58785;55.566;38.058;2022-10-17T10:28:15;101047.81;;;8.60;72.14
71126;BME280;58785;55.566;38.058;2022-10-17T10:30:46;101031.50;;;8.53;72.40
71126;BME280;58785;55.566;38.058;2022-10-17T10:33:12;101040.69;;;8.60;72.34
71126;BME280;58785;55.566;38.058;2022-10-17T10:35:38;101043.31;;;8.73;72.11
71126;BME280;58785;55.566;38.058;2022-10-17T10:38:09;101040.06;;;8.81;72.45
71126;BME280;58785;55.566;38.058;2022-10-17T10:40:56;101038.34;;;8.92;72.43
71126;BME280;58785;55.566;38.058;2022-10-17T10:43:33;101044.88;;;9.00;71.89
71126;BME280;58785;55.566;38.058;2022-10-17T10:46:01;101038.38;;;9.04;72.43
71126;BME280;58785;55.566;38.058;2022-10-17T10:48:34;101026.91;;;9.03;72.09
71126;BME280;58785;55.566;38.058;2022-10-17T10:56:40;101008.75;;;9.08;72.54
71126;BME280;58785;55.566;38.058;2022-10-17T11:07:03;101013.91;;;9.23;72.55
71126;BME280;58785;55.566;38.058;2022-10-17T11:09:48;101012.09;;;9.23;72.35
71126;BME280;58785;55.566;38.058;2022-10-17T11:12:35;101000.09;;;9.17;72.38
71126;BME280;58785;55.566;38.058;2022-10-17T11:15:30;101011.69;;;9.16;72.48
71126;BME280;58785;55.566;38.058;2022-10-17T11:18:02;101003.00;;;9.14;72.10
71126;BME280;58785;55.566;38.058;2022-10-17T11:20:33;101013.63;;;9.14;72.62
71126;BME280;58785;55.566;38.058;2022-10-17T11:23:16;100998.97;;;9.09;72.77
71126;BME280;58785;55.566;38.058;2022-10-17T11:25:46;100993.66;;;9.09;72.85
71126;BME280;58785;55.566;38.058;2022-10-17T11:28:15;100980.00;;;9.13;72.58
71126;BME280;58785;55.566;38.058;2022-10-17T11:30:56;100976.03;;;9.19;72.76
71126;BME280;58785;55.566;38.058;2022-10-17T11:33:38;100986.06;;;9.15;72.88
71126;BME280;58785;55.566;38.058;2022-10-17T11:36:07;100980.72;;;9.04;73.13
71126;BME280;58785;55.566;38.058;2022-10-17T11:38:54;100990.50;;;9.04;73.18
71126;BME280;58785;55.566;38.058;2022-10-17T11:41:47;100992.41;;;9.02;73.11
71126;BME280;58785;55.566;38.058;2022-10-17T11:46:39;100990.25;;;9.07;72.71
71126;BME280;58785;55.566;38.058;2022-10-17T11:49:15;100978.16;;;9.03;73.21
71126;BME280;58785;55.566;38.058;2022-10-17T11:54:47;100967.97;;;8.97;73.35
71126;BME280;58785;55.566;38.058;2022-10-17T11:57:54;100980.06;;;9.01;73.68
71126;BME280;58785;55.566;38.058;2022-10-17T12:03:41;100959.56;;;9.03;73.32
71126;BME280;58785;55.566;38.058;2022-10-17T12:06:36;100977.09;;;9.05;73.55
71126;BME280;58785;55.566;38.058;2022-10-17T12:09:08;100980.59;;;9.06;73.71
71126;BME280;58785;55.566;38.058;2022-10-17T12:16:59;100959.56;;;9.03;73.75
71126;BME280;58785;55.566;38.058;2022-10-17T12:19:35;100951.66;;;9.01;73.69
71126;BME280;58785;55.566;38.058;2022-10-17T12:22:28;100955.69;;;9.07;73.68
71126;BME280;58785;55.566;38.058;2022-10-17T12:25:01;100950.34;;;9.07;73.99
71126;BME280;58785;55.566;38.058;2022-10-17T12:30:14;100936.22;;;9.06;73.85
71126;BME280;58785;55.566;38.058;2022-10-17T12:33:00;100921.81;;;9.09;74.21
71126;BME280;58785;55.566;38.058;2022-10-17T12:35:28;100925.97;;;9.13;73.89
71126;BME280;58785;55.566;38.058;2022-10-17T12:53:59;100919.81;;;9.24;74.25
71126;BME280;58785;55.566;38.058;2022-10-17T12:56:33;100924.03;;;9.26;74.42
71126;BME280;58785;55.566;38.058;2022-10-17T12:59:00;100931.41;;;9.23;74.02
71126;BME280;58785;55.566;38.058;2022-10-17T13:01:32;100925.72;;;9.27;74.57
71126;BME280;58785;55.566;38.058;2022-10-17T13:04:00;100921.72;;;9.21;74.61
71126;BME280;58785;55.566;38.058;2022-10-17T13:06:32;100920.25;;;9.17;74.63
71126;BME280;58785;55.566;38.058;2022-10-17T13:09:19;100914.56;;;9.11;74.82
71126;BME280;58785;55.566;38.058;2022-10-17T13:11:48;100927.53;;;9.15;74.80
71126;BME280;58785;55.566;38.058;2022-10-17T13:14:16;100915.41;;;9.11;74.97
71126;BME280;58785;55.566;38.058;2022-10-17T13:16:55;100931.28;;;9.13;74.76
71126;BME280;58785;55.566;38.058;2022-10-17T13:19:24;100936.81;;;9.10;75.13
71126;BME280;58785;55.566;38.058;2022-10-17T13:22:01;100904.16;;;9.08;75.39
71126;BME280;58785;55.566;38.058;2022-10-17T13:26:53;100934.78;;;9.13;75.37
71126;BME280;58785;55.566;38.058;2022-10-17T13:29:19;100935.97;;;9.09;75.11
71126;BME280;58785;55.566;38.058;2022-10-17T13:31:52;100930.88;;;9.06;75.11
71126;BME280;58785;55.566;38.058;2022-10-17T13:34:24;100942.00;;;9.11;75.43
71126;BME280;58785;55.566;38.058;2022-10-17T13:37:02;100965.34;;;9.08;75.21
71126;BME280;58785;55.566;38.058;2022-10-17T13:39:33;100992.81;;;9.08;75.30
71126;BME280;58785;55.566;38.058;2022-10-17T13:42:00;101001.88;;;9.06;75.54
71126;BME280;58785;55.566;38.058;2022-10-17T13:44:31;100997.28;;;9.08;75.84
71126;BME280;58785;55.566;38.058;2022-10-17T13:46:57;100991.97;;;9.08;75.70
71126;BME280;58785;55.566;38.058;2022-10-17T13:49:40;100988.22;;;9.10;75.48
71126;BME280;58785;55.566;38.058;2022-10-17T13:52:16;100980.34;;;9.09;75.78
71126;BME280;58785;55.566;38.058;2022-10-17T13:54:45;100986.03;;;9.04;75.45
71126;BME280;58785;55.566;38.058;2022-10-17T13:57:18;100979.03;;;9.03;75.76
71126;BME280;58785;55.566;38.058;2022-10-17T13:59:48;100991.09;;;9.07;76.13
71126;BME280;58785;55.566;38.058;2022-10-17T14:02:18;100988.56;;;9.06;76.06
71126;BME280;58785;55.566;38.058;2022-10-17T14:04:44;100979.03;;;9.03;75.84
71126;BME280;58785;55.566;38.058;2022-10-17T14:10:02;100984.81;;;9.08;76.29
71126;BME280;58785;55.566;38.058;2022-10-17T14:12:31;100984.69;;;9.10;76.19
71126;BME280;58785;55.566;38.058;2022-10-17T14:14:57;100978.53;;;9.09;75.96
71126;BME280;58785;55.566;38.058;2022-10-17T14:17:27;100982.16;;;9.08;76.23
71126;BME280;58785;55.566;38.058;2022-10-17T14:20:00;100966.56;;;9.04;76.10
71126;BME280;58785;55.566;38.058;2022-10-17T14:22:32;100974.06;;;9.10;76.37
71126;BME280;58785;55.566;38.058;2022-10-17T14:24:58;100970.66;;;9.08;76.22
71126;BME280;58785;55.566;38.058;2022-10-17T14:29:57;100976.72;;;9.10;76.45
71126;BME280;58785;55.566;38.058;2022-10-17T14:32:31;100974.44;;;9.16;76.40
71126;BME280;58785;55.566;38.058;2022-10-17T14:35:00;100963.81;;;9.16;76.74
71126;BME280;58785;55.566;38.058;2022-10-17T14:37:47;100962.97;;;9.16;76.70
71126;BME280;58785;55.566;38.058;2022-10-17T14:40:19;100949.25;;;9.09;76.76
71126;BME280;58785;55.566;38.058;2022-10-17T14:42:45;100961.25;;;9.15;76.50
71126;BME280;58785;55.566;38.058;2022-10-17T14:45:37;100955.22;;;9.13;76.94
71126;BME280;58785;55.566;38.058;2022-10-17T14:48:10;100960.41;;;9.14;76.81
71126;BME280;58785;55.566;38.058;2022-10-17T14:50:37;100959.69;;;9.12;77.07
71126;BME280;58785;55.566;38.058;2022-10-17T14:53:19;100971.19;;;9.13;77.05
71126;BME280;58785;55.566;38.058;2022-10-17T14:56:00;100970.34;;;9.12;76.93
71126;BME280;58785;55.566;38.058;2022-10-17T14:58:28;100977.34;;;9.13;77.08